Berkeley, CA

12:20 AM PST on February 06, 2016 (GMT -0800)
South Berkeley | | Change Station
CLOSE
Current Station
Personal Weather Station
Location: Berkeley, CA
Elevation: 82 ft
Nearby Weather Stations

Elev 82 ft 37.86 °N, 122.28 °W | Updated 10 minutes ago

Partly Cloudy
Partly Cloudy
46.6 °F
Feels Like 47 °F
N
0.0
Wind Variable Wind from NNE

Today
High -- | Low -- °F
--% Chance of Precip.
Yesterday
High -- | Low -- °F
Precip. -- in
Pressure 30.41 in
Visibility 9.0 miles
Clouds Few 20000 ft
Windchill 47 °F
Dew Point 46 °F
Humidity 96%
Rainfall 0.00 in
Snow Depth Not available.
7:09 AM 5:37 PM
Waning Crescent, 7% visible
METAR KOAK 060753Z 11006KT 9SM FEW200 11/07 A3041 RMK AO2 SLP298 T01060072 401720044
Pressure 30.41 in
Visibility 9.0 miles
Clouds Few 20000 ft
Windchill 47 °F
Dew Point 46 °F
Humidity 96%
Rainfall 0.00 in
Snow Depth Not available.
7:09 AM 5:37 PM
Waning Crescent, 7% visible
METAR KOAK 060753Z 11006KT 9SM FEW200 11/07 A3041 RMK AO2 SLP298 T01060072 401720044

10-Day Weather Forecast

Almanac

Astronomy

Feb. 06, 2016 Rise Set
Actual Time
Civil Twilight
Nautical Twilight
Astronomical Twilight
Moon
Length of Visible Light
Length of Day
Tomorrow will be .
, % of the Moon is Illuminated

Today's Extremes

State Highs State Lows

Community

WunderPhotos

Upload Photos

1,890,933 photos uploaded!

WunderBlog® & News

Nearby

Air Quality

  Air Quality AQ Index Pollutant
Not available.

Snow Depth

Station Depth Elevation

Earthquake Activity

City Distance Mag. Time & Date
Minimum magnitude displayed is 2.5.

Coastal Water Temperatures

Place Temperature

Stations

Nearby Weather Stations

Station Location Temp. Windchill Dew Point Humidity Wind Precip. Elev Updated Type
                   

Watches & Warnings

There are currently no watches in effect.